Time;durP1;ratioP1;P1;durP2;ratioP2;P2;SDS_P1;SDS_P2;PMS_P1;PMS_P2;Temp;Humidity;BMP_temperature;BMP_pressure;BME280_temperature;BME280_humidity;BME280_pressure;Samples;Min_cycle;Max_cycle;Signal;HPM_P1;HPM_P2
2023/10/31 00:01:51;;;;;;;10.18;7.25;;;;;;;;;;6227013;28;20426;-70
2023/10/31 00:04:53;;;;;;;17.77;9.40;;;;;;;;;;6222483;28;20069;-70
2023/10/31 00:07:55;;;;;;;16.60;10.88;;;;;;;;;;6217106;28;20049;-69
2023/10/31 00:10:57;;;;;;;11.10;8.77;;;;;;;;;;6237661;28;20191;-70
2023/10/31 00:14:00;;;;;;;11.55;10.15;;;;;;;;;;6219506;28;20156;-70
2023/10/31 00:17:02;;;;;;;10.88;8.65;;;;;;;;;;6238875;28;20049;-69
2023/10/31 00:20:05;;;;;;;12.43;9.00;;;;;;;;;;6238580;28;20069;-70
2023/10/31 00:23:07;;;;;;;14.68;9.52;;;;;;;;;;6232985;28;20037;-69
2023/10/31 00:26:09;;;;;;;14.60;11.18;;;;;;;;;;6239066;28;20128;-69
2023/10/31 00:29:14;;;;;;;14.15;10.27;;;;;;;;;;6222027;28;20048;-70
2023/10/31 00:32:16;;;;;;;14.05;9.40;;;;;;;;;;6231588;28;20439;-69
2023/10/31 00:35:19;;;;;;;13.70;9.15;;;;;;;;;;6239363;28;20056;-70
2023/10/31 00:38:21;;;;;;;12.55;10.88;;;;;;;;;;6221672;28;20041;-70
2023/10/31 00:41:23;;;;;;;10.88;9.40;;;;;;;;;;6220439;28;20052;-70
2023/10/31 00:44:25;;;;;;;13.13;9.40;;;;;;;;;;6234830;28;20069;-70
2023/10/31 00:47:27;;;;;;;9.85;8.60;;;;;;;;;;6220909;28;20515;-70
2023/10/31 00:50:29;;;;;;;13.77;9.75;;;;;;;;;;6239004;28;20046;-70
2023/10/31 00:53:32;;;;;;;12.48;7.72;;;;;;;;;;6238214;28;20525;-70
2023/10/31 00:56:35;;;;;;;12.90;9.15;;;;;;;;;;6239147;28;20455;-70
2023/10/31 00:59:39;;;;;;;16.05;9.30;;;;;;;;;;6199690;28;20132;-70
2023/10/31 01:02:41;;;;;;;12.38;9.23;;;;;;;;;;6235225;28;20079;-70
2023/10/31 01:05:43;;;;;;;12.48;8.90;;;;;;;;;;6236100;28;20053;-70
2023/10/31 01:08:45;;;;;;;18.73;11.98;;;;;;;;;;6218840;28;20139;-70
2023/10/31 01:11:47;;;;;;;13.07;10.35;;;;;;;;;;6217215;28;20488;-69
2023/10/31 01:14:50;;;;;;;14.30;9.07;;;;;;;;;;6211014;28;20046;-70
2023/10/31 01:17:52;;;;;;;17.80;11.57;;;;;;;;;;6239478;28;20046;-70
2023/10/31 01:20:54;;;;;;;16.63;10.70;;;;;;;;;;6238674;28;20050;-69
2023/10/31 01:23:56;;;;;;;13.90;10.52;;;;;;;;;;6233097;28;20041;-70
2023/10/31 01:26:58;;;;;;;16.88;10.02;;;;;;;;;;6220112;28;20131;-70
2023/10/31 01:30:00;;;;;;;14.80;9.63;;;;;;;;;;6217746;28;20538;-70
2023/10/31 01:33:02;;;;;;;12.95;9.15;;;;;;;;;;6237168;28;20041;-70
2023/10/31 01:36:05;;;;;;;18.02;10.30;;;;;;;;;;6219715;28;20660;-71
2023/10/31 01:39:07;;;;;;;16.05;9.73;;;;;;;;;;6237456;28;20081;-71
2023/10/31 01:42:10;;;;;;;12.35;9.73;;;;;;;;;;6238142;28;20057;-71
2023/10/31 01:45:12;;;;;;;13.63;9.20;;;;;;;;;;6199799;28;20056;-70
2023/10/31 01:48:16;;;;;;;13.02;10.20;;;;;;;;;;6212790;28;20762;-68
2023/10/31 01:51:18;;;;;;;11.63;10.48;;;;;;;;;;6219384;28;20133;-70
2023/10/31 01:54:21;;;;;;;17.80;9.43;;;;;;;;;;6234719;28;20053;-70
2023/10/31 01:57:23;;;;;;;13.48;9.95;;;;;;;;;;6185826;28;20047;-70
2023/10/31 02:00:25;;;;;;;15.40;9.45;;;;;;;;;;6238132;28;20119;-71
2023/10/31 02:03:28;;;;;;;12.15;10.65;;;;;;;;;;6219280;28;20057;-71
2023/10/31 02:06:30;;;;;;;13.40;9.23;;;;;;;;;;6232253;28;20097;-71
2023/10/31 02:09:32;;;;;;;11.57;9.00;;;;;;;;;;6236750;28;20132;-71
2023/10/31 02:12:36;;;;;;;14.35;12.43;;;;;;;;;;6212946;28;20093;-71
2023/10/31 02:15:38;;;;;;;11.38;9.13;;;;;;;;;;6236603;28;20048;-71
2023/10/31 02:18:41;;;;;;;14.10;11.18;;;;;;;;;;6235550;28;20064;-71
2023/10/31 02:21:43;;;;;;;12.45;9.90;;;;;;;;;;6236880;28;20045;-72
2023/10/31 02:24:45;;;;;;;16.60;10.32;;;;;;;;;;6236992;28;20119;-71
2023/10/31 02:27:47;;;;;;;12.95;8.85;;;;;;;;;;6230187;28;20235;-71
2023/10/31 02:30:49;;;;;;;15.57;10.25;;;;;;;;;;6236951;28;20041;-71
2023/10/31 02:34:10;;;;;;;14.90;11.10;;;;;;;;;;6236013;28;20522;-71
2023/10/31 02:37:12;;;;;;;13.18;10.40;;;;;;;;;;6202927;28;20522;-71
2023/10/31 02:40:15;;;;;;;20.73;9.40;;;;;;;;;;6224989;28;20045;-71
2023/10/31 02:43:17;;;;;;;14.65;10.50;;;;;;;;;;6216536;28;20064;-71
2023/10/31 02:46:19;;;;;;;13.15;10.15;;;;;;;;;;6236484;28;20057;-71
2023/10/31 02:49:23;;;;;;;14.63;10.63;;;;;;;;;;6215395;28;20130;-71
2023/10/31 02:52:25;;;;;;;18.70;9.85;;;;;;;;;;6233550;28;20060;-71
2023/10/31 02:55:27;;;;;;;17.60;12.43;;;;;;;;;;6252180;28;20135;-71
2023/10/31 02:58:29;;;;;;;11.82;10.00;;;;;;;;;;6235021;28;20179;-70
2023/10/31 03:01:31;;;;;;;15.60;12.55;;;;;;;;;;6219508;28;20057;-71
2023/10/31 03:04:34;;;;;;;17.08;10.85;;;;;;;;;;6214647;28;20430;-71
2023/10/31 03:07:36;;;;;;;15.23;11.88;;;;;;;;;;6215367;28;20407;-70
2023/10/31 03:10:39;;;;;;;15.23;7.72;;;;;;;;;;6236036;28;20645;-71
2023/10/31 03:13:41;;;;;;;14.73;10.82;;;;;;;;;;6236322;28;20045;-71
2023/10/31 03:16:43;;;;;;;13.25;11.30;;;;;;;;;;6225835;28;20052;-70
2023/10/31 03:19:45;;;;;;;13.63;11.02;;;;;;;;;;6235521;28;20049;-70
2023/10/31 03:22:47;;;;;;;11.65;9.10;;;;;;;;;;6216487;28;20514;-70
2023/10/31 03:25:49;;;;;;;11.15;7.78;;;;;;;;;;6211368;28;20614;-70
2023/10/31 03:28:56;;;;;;;14.30;10.68;;;;;;;;;;6233725;28;20044;-71
2023/10/31 03:31:59;;;;;;;15.52;11.05;;;;;;;;;;6235366;28;20037;-70
2023/10/31 03:35:01;;;;;;;15.75;11.50;;;;;;;;;;6221352;28;20867;-70
2023/10/31 03:38:03;;;;;;;14.43;12.35;;;;;;;;;;6239992;28;20056;-70
2023/10/31 03:41:05;;;;;;;15.10;11.35;;;;;;;;;;6240688;28;20195;-70
2023/10/31 03:44:07;;;;;;;19.60;12.57;;;;;;;;;;6205714;28;20044;-70
2023/10/31 03:47:10;;;;;;;16.08;12.20;;;;;;;;;;6220644;28;20084;-69
2023/10/31 03:50:11;;;;;;;19.77;11.38;;;;;;;;;;6209830;28;20463;-70
2023/10/31 03:53:14;;;;;;;17.90;12.57;;;;;;;;;;6222415;28;20049;-70
2023/10/31 03:56:16;;;;;;;12.23;10.75;;;;;;;;;;6222645;28;20045;-70
2023/10/31 03:59:18;;;;;;;20.25;12.55;;;;;;;;;;6239971;28;20046;-71
2023/10/31 04:02:20;;;;;;;14.88;11.23;;;;;;;;;;6235782;28;20046;-71
2023/10/31 04:05:22;;;;;;;16.20;12.88;;;;;;;;;;6212631;28;20534;-71
2023/10/31 04:08:25;;;;;;;17.73;9.98;;;;;;;;;;6240119;28;20421;-71
2023/10/31 04:11:27;;;;;;;19.65;12.35;;;;;;;;;;6222002;28;20048;-71
2023/10/31 04:14:29;;;;;;;18.50;11.35;;;;;;;;;;6210613;28;20094;-70
2023/10/31 04:17:31;;;;;;;13.98;11.93;;;;;;;;;;6240006;28;20537;-70
2023/10/31 04:20:33;;;;;;;19.52;12.73;;;;;;;;;;6240066;28;20053;-70
2023/10/31 04:23:35;;;;;;;14.85;11.57;;;;;;;;;;6239891;28;20488;-72
2023/10/31 04:26:41;;;;;;;14.73;12.48;;;;;;;;;;6239808;28;20037;-70
2023/10/31 04:29:43;;;;;;;16.80;12.63;;;;;;;;;;6235689;28;20128;-70
2023/10/31 04:32:46;;;;;;;18.17;14.52;;;;;;;;;;6221139;28;20045;-69
2023/10/31 04:35:48;;;;;;;16.20;12.63;;;;;;;;;;6222642;28;20050;-71
2023/10/31 04:38:50;;;;;;;13.82;11.70;;;;;;;;;;6239402;28;20801;-70
2023/10/31 04:41:52;;;;;;;17.13;11.43;;;;;;;;;;6239844;28;20053;-71
2023/10/31 04:44:55;;;;;;;15.25;13.52;;;;;;;;;;6238207;28;20053;-71
2023/10/31 04:47:57;;;;;;;18.92;12.00;;;;;;;;;;6222217;28;20057;-70
2023/10/31 04:51:00;;;;;;;14.30;9.07;;;;;;;;;;6235228;28;20778;-71
2023/10/31 04:54:03;;;;;;;18.65;13.65;;;;;;;;;;6232834;28;20046;-71
2023/10/31 04:57:05;;;;;;;13.95;12.10;;;;;;;;;;6220955;28;20056;-70
2023/10/31 05:00:08;;;;;;;15.48;12.77;;;;;;;;;;6238695;28;20049;-71
2023/10/31 05:03:10;;;;;;;19.58;11.95;;;;;;;;;;6237726;28;20056;-70
2023/10/31 05:06:12;;;;;;;15.32;11.70;;;;;;;;;;6205521;28;20053;-70
2023/10/31 05:09:15;;;;;;;21.23;12.45;;;;;;;;;;6220741;28;20140;-70
2023/10/31 05:12:17;;;;;;;16.60;12.82;;;;;;;;;;6234771;28;20052;-70
2023/10/31 05:15:19;;;;;;;15.88;12.65;;;;;;;;;;6216359;28;20076;-71
2023/10/31 05:18:22;;;;;;;13.15;11.73;;;;;;;;;;6232535;28;20052;-69
2023/10/31 05:21:24;;;;;;;14.73;12.43;;;;;;;;;;6238176;28;20038;-68
2023/10/31 05:24:26;;;;;;;14.48;11.68;;;;;;;;;;6237372;28;20161;-67
2023/10/31 05:27:29;;;;;;;11.95;7.88;;;;;;;;;;6220801;28;20492;-70
2023/10/31 05:30:34;;;;;;;16.13;11.98;;;;;;;;;;6233476;28;20136;-71
2023/10/31 05:33:36;;;;;;;13.25;11.60;;;;;;;;;;6235187;28;20046;-70
2023/10/31 05:36:38;;;;;;;15.82;12.73;;;;;;;;;;6218178;28;20144;-70
2023/10/31 05:39:41;;;;;;;15.18;12.50;;;;;;;;;;6235012;28;20103;-71
2023/10/31 05:42:43;;;;;;;18.25;9.18;;;;;;;;;;6233419;28;20320;-69
2023/10/31 05:45:45;;;;;;;14.77;11.60;;;;;;;;;;6235483;28;20053;-69
2023/10/31 05:48:47;;;;;;;13.82;11.55;;;;;;;;;;6217973;28;20054;-69
2023/10/31 05:51:52;;;;;;;23.83;9.10;;;;;;;;;;6219419;28;20534;-67
2023/10/31 05:54:54;;;;;;;16.48;12.95;;;;;;;;;;6230337;28;20041;-68
2023/10/31 05:57:56;;;;;;;32.35;16.52;;;;;;;;;;6235440;28;20619;-67
2023/10/31 06:00:58;;;;;;;21.35;11.07;;;;;;;;;;6234885;28;20634;-67
2023/10/31 06:04:00;;;;;;;20.50;15.82;;;;;;;;;;6233295;28;20049;-68
2023/10/31 06:07:03;;;;;;;18.63;13.40;;;;;;;;;;6228285;28;20050;-68
2023/10/31 06:10:05;;;;;;;19.02;13.93;;;;;;;;;;6228250;28;20033;-68
2023/10/31 06:13:08;;;;;;;18.83;13.65;;;;;;;;;;6233019;28;20041;-66
2023/10/31 06:16:10;;;;;;;19.23;12.88;;;;;;;;;;6229302;28;20106;-70
2023/10/31 06:19:12;;;;;;;15.18;13.32;;;;;;;;;;6235709;28;20057;-70
2023/10/31 06:22:14;;;;;;;16.25;12.57;;;;;;;;;;6230097;28;20046;-68
2023/10/31 06:25:16;;;;;;;17.58;12.95;;;;;;;;;;6237051;28;20135;-70
2023/10/31 06:28:18;;;;;;;19.95;11.50;;;;;;;;;;6237194;28;20547;-70
2023/10/31 06:31:20;;;;;;;13.60;12.20;;;;;;;;;;6217749;28;20068;-72
2023/10/31 06:34:24;;;;;;;14.90;11.30;;;;;;;;;;6223329;28;20045;-71
2023/10/31 06:37:26;;;;;;;15.93;13.43;;;;;;;;;;6229687;28;20041;-70
2023/10/31 06:40:28;;;;;;;17.45;13.20;;;;;;;;;;6230361;28;20124;-70
2023/10/31 06:43:31;;;;;;;19.38;13.40;;;;;;;;;;6233749;28;20049;-69
2023/10/31 06:46:35;;;;;;;20.80;13.77;;;;;;;;;;6228014;28;20089;-71
2023/10/31 06:49:37;;;;;;;21.27;15.43;;;;;;;;;;6205157;28;20514;-70
2023/10/31 06:52:41;;;;;;;22.77;13.43;;;;;;;;;;6231673;28;20052;-70
2023/10/31 06:55:43;;;;;;;20.35;15.27;;;;;;;;;;6231573;28;20053;-70
2023/10/31 06:58:45;;;;;;;17.63;14.15;;;;;;;;;;6232782;28;20041;-70
2023/10/31 07:01:47;;;;;;;20.27;13.15;;;;;;;;;;6225282;28;20683;-70
2023/10/31 07:04:49;;;;;;;16.73;12.27;;;;;;;;;;6232772;28;20128;-70
2023/10/31 07:07:51;;;;;;;17.75;14.25;;;;;;;;;;6235291;28;20057;-70
2023/10/31 07:10:53;;;;;;;19.02;13.35;;;;;;;;;;6232464;28;20581;-70
2023/10/31 07:13:55;;;;;;;18.70;12.35;;;;;;;;;;6215817;28;20212;-70
2023/10/31 07:16:57;;;;;;;20.42;12.25;;;;;;;;;;6210342;28;20053;-70
2023/10/31 07:20:00;;;;;;;15.30;12.35;;;;;;;;;;6236089;28;20037;-70
2023/10/31 07:23:02;;;;;;;17.17;11.57;;;;;;;;;;6233056;28;20458;-70
2023/10/31 07:26:04;;;;;;;16.95;9.60;;;;;;;;;;6235133;28;20357;-70
2023/10/31 07:29:06;;;;;;;16.23;11.45;;;;;;;;;;6234861;28;20045;-70
2023/10/31 07:32:09;;;;;;;14.32;11.93;;;;;;;;;;6232817;28;20041;-70
2023/10/31 07:35:12;;;;;;;19.88;12.35;;;;;;;;;;6235756;28;20554;-70
2023/10/31 07:38:14;;;;;;;15.60;12.38;;;;;;;;;;6235296;28;20049;-70
2023/10/31 07:41:16;;;;;;;15.68;12.60;;;;;;;;;;6233937;28;20052;-70
2023/10/31 07:44:18;;;;;;;16.27;7.55;;;;;;;;;;6235600;28;20049;-70
2023/10/31 07:47:21;;;;;;;12.40;10.82;;;;;;;;;;6236630;28;20720;-69
2023/10/31 07:50:23;;;;;;;11.02;9.75;;;;;;;;;;6234350;28;20057;-69
2023/10/31 07:53:25;;;;;;;21.10;15.07;;;;;;;;;;6234585;28;20053;-70
2023/10/31 07:56:28;;;;;;;16.13;10.88;;;;;;;;;;6235672;28;20054;-70
2023/10/31 07:59:33;;;;;;;14.43;10.07;;;;;;;;;;6231199;28;20053;-70
2023/10/31 08:02:35;;;;;;;13.82;10.60;;;;;;;;;;6231836;28;20042;-70
2023/10/31 08:05:37;;;;;;;14.85;10.27;;;;;;;;;;6233072;28;20049;-70
2023/10/31 08:08:39;;;;;;;15.82;12.30;;;;;;;;;;6234841;28;20124;-70
2023/10/31 08:11:44;;;;;;;25.38;15.40;;;;;;;;;;6235134;28;20046;-70
2023/10/31 08:14:46;;;;;;;19.70;11.80;;;;;;;;;;6230139;28;20053;-70
2023/10/31 08:17:48;;;;;;;30.50;17.75;;;;;;;;;;6235258;28;20052;-70
2023/10/31 08:21:08;;;;;;;19.65;11.52;;;;;;;;;;6240256;28;20052;-70
2023/10/31 08:24:10;;;;;;;16.73;11.77;;;;;;;;;;6230974;28;20053;-70
2023/10/31 08:27:13;;;;;;;17.88;10.45;;;;;;;;;;6240698;28;20549;-71
2023/10/31 08:30:15;;;;;;;14.88;10.80;;;;;;;;;;6239272;28;20049;-71
2023/10/31 08:33:16;;;;;;;15.63;9.77;;;;;;;;;;6239889;28;20061;-71
2023/10/31 08:36:34;;;;;;;13.55;12.18;;;;;;;;;;6228400;28;20037;-71
2023/10/31 08:39:36;;;;;;;12.55;9.18;;;;;;;;;;6239969;28;20068;-71
2023/10/31 08:42:38;;;;;;;11.20;9.10;;;;;;;;;;6238699;28;20041;-71
2023/10/31 08:45:40;;;;;;;13.48;10.50;;;;;;;;;;6234437;28;20038;-71
2023/10/31 08:48:42;;;;;;;15.75;9.98;;;;;;;;;;6238236;28;20668;-72
2023/10/31 08:51:44;;;;;;;16.92;11.27;;;;;;;;;;6238950;28;20037;-72
2023/10/31 08:54:46;;;;;;;13.25;8.15;;;;;;;;;;6237929;28;20124;-71
2023/10/31 08:57:48;;;;;;;13.77;8.00;;;;;;;;;;6239045;28;20124;-71
2023/10/31 09:00:51;;;;;;;12.15;8.45;;;;;;;;;;6236803;28;20064;-72
2023/10/31 09:03:53;;;;;;;9.90;8.23;;;;;;;;;;6237363;28;20045;-70
2023/10/31 09:06:55;;;;;;;11.85;8.77;;;;;;;;;;6224202;28;20167;-71
2023/10/31 09:09:57;;;;;;;10.07;4.97;;;;;;;;;;6238452;28;20089;-70
2023/10/31 09:12:59;;;;;;;8.00;6.90;;;;;;;;;;6237410;28;20044;-70
2023/10/31 09:16:01;;;;;;;10.20;6.70;;;;;;;;;;6234618;28;20041;-70
2023/10/31 09:19:03;;;;;;;8.02;5.60;;;;;;;;;;6237499;28;20057;-71
2023/10/31 09:22:05;;;;;;;11.13;7.15;;;;;;;;;;6238117;28;20037;-70
2023/10/31 09:25:07;;;;;;;11.50;7.72;;;;;;;;;;6219979;28;20514;-70
2023/10/31 09:28:09;;;;;;;11.55;4.00;;;;;;;;;;6237552;28;20041;-69
2023/10/31 09:31:12;;;;;;;11.40;5.63;;;;;;;;;;6236567;28;20056;-71
2023/10/31 09:34:14;;;;;;;8.57;6.85;;;;;;;;;;6236666;28;20049;-70
2023/10/31 09:37:16;;;;;;;11.13;5.70;;;;;;;;;;6236892;28;20518;-70
2023/10/31 09:40:21;;;;;;;15.18;5.50;;;;;;;;;;6236952;28;20049;-70
2023/10/31 09:43:23;;;;;;;10.43;5.30;;;;;;;;;;6237068;28;20049;-72
2023/10/31 09:46:28;;;;;;;12.07;3.17;;;;;;;;;;6237867;28;20064;-71
2023/10/31 09:49:30;;;;;;;6.25;3.17;;;;;;;;;;6220116;28;20447;-71
2023/10/31 09:52:32;;;;;;;6.53;3.20;;;;;;;;;;6220387;28;20172;-71
2023/10/31 09:55:34;;;;;;;7.03;4.95;;;;;;;;;;6237591;28;20049;-71
2023/10/31 09:58:36;;;;;;;10.75;4.70;;;;;;;;;;6219962;28;20050;-70
2023/10/31 10:01:38;;;;;;;8.38;5.75;;;;;;;;;;6237572;28;20056;-71
2023/10/31 10:04:41;;;;;;;9.30;5.22;;;;;;;;;;6236793;28;20052;-71
2023/10/31 10:07:43;;;;;;;6.53;3.58;;;;;;;;;;6237174;28;20057;-71
2023/10/31 10:10:46;;;;;;;11.90;4.57;;;;;;;;;;6219887;28;20046;-71
2023/10/31 10:13:51;;;;;;;6.25;2.83;;;;;;;;;;6218638;28;20136;-71
2023/10/31 10:16:54;;;;;;;9.13;5.43;;;;;;;;;;6219014;28;20147;-71
2023/10/31 10:20:08;;;;;;;9.70;3.92;;;;;;;;;;6237244;28;20132;-70
2023/10/31 10:23:10;;;;;;;9.85;4.20;;;;;;;;;;6218469;28;20050;-71
2023/10/31 10:26:12;;;;;;;9.48;4.28;;;;;;;;;;6237344;28;20052;-71
2023/10/31 10:29:15;;;;;;;7.57;3.38;;;;;;;;;;6235103;28;20122;-71
2023/10/31 10:32:18;;;;;;;8.57;4.20;;;;;;;;;;6236492;28;20183;-71
2023/10/31 10:35:21;;;;;;;10.30;4.40;;;;;;;;;;6216626;28;20443;-73
2023/10/31 10:38:25;;;;;;;8.30;2.70;;;;;;;;;;6235592;28;20853;-71
2023/10/31 10:41:28;;;;;;;13.98;4.97;;;;;;;;;;6234899;28;20045;-71
2023/10/31 10:44:34;;;;;;;7.75;5.15;;;;;;;;;;6213584;28;20515;-71
2023/10/31 10:47:39;;;;;;;8.77;3.95;;;;;;;;;;6232196;28;20049;-71
2023/10/31 10:50:43;;;;;;;8.48;3.88;;;;;;;;;;6236881;28;20041;-73
2023/10/31 10:53:53;;;;;;;9.63;3.70;;;;;;;;;;6224629;28;20047;-72
2023/10/31 10:56:59;;;;;;;8.88;3.67;;;;;;;;;;6219513;28;20144;-71
2023/10/31 11:00:04;;;;;;;5.57;3.45;;;;;;;;;;6218911;28;20049;-71
2023/10/31 11:03:07;;;;;;;8.23;3.90;;;;;;;;;;6235397;28;20079;-71
2023/10/31 11:06:09;;;;;;;7.95;3.38;;;;;;;;;;6235765;28;20666;-71
2023/10/31 11:09:12;;;;;;;10.98;3.95;;;;;;;;;;6235273;28;20057;-71
2023/10/31 11:12:14;;;;;;;6.63;3.53;;;;;;;;;;6234354;28;20184;-70
2023/10/31 11:15:18;;;;;;;5.72;2.67;;;;;;;;;;6236448;28;20045;-71
2023/10/31 11:18:20;;;;;;;8.00;3.38;;;;;;;;;;6215908;28;20578;-71
2023/10/31 11:21:23;;;;;;;7.43;3.88;;;;;;;;;;6232555;28;20541;-71
2023/10/31 11:24:32;;;;;;;5.75;2.95;;;;;;;;;;6233613;28;20041;-71
2023/10/31 11:27:37;;;;;;;9.02;2.92;;;;;;;;;;6236398;28;20050;-71
2023/10/31 11:30:44;;;;;;;7.45;3.85;;;;;;;;;;6218271;28;20072;-71
2023/10/31 11:33:47;;;;;;;7.30;4.07;;;;;;;;;;6234465;28;20050;-71
2023/10/31 11:36:50;;;;;;;5.75;3.05;;;;;;;;;;6235310;28;20569;-71
2023/10/31 11:40:15;;;;;;;8.48;3.75;;;;;;;;;;6234115;28;20437;-71
2023/10/31 11:43:17;;;;;;;11.23;3.63;;;;;;;;;;6206167;28;20119;-72
2023/10/31 11:46:24;;;;;;;5.28;3.00;;;;;;;;;;6231412;28;20046;-71
2023/10/31 11:49:49;;;;;;;8.75;2.83;;;;;;;;;;6236207;28;20546;-71
2023/10/31 11:53:16;;;;;;;4.90;2.65;;;;;;;;;;6236003;28;20033;-71
2023/10/31 11:56:19;;;;;;;8.15;3.00;;;;;;;;;;6241045;28;20113;-71
2023/10/31 11:59:22;;;;;;;7.72;4.10;;;;;;;;;;6240973;28;20134;-71
2023/10/31 12:02:25;;;;;;;4.05;1.63;;;;;;;;;;6237721;28;20736;-71
2023/10/31 12:05:28;;;;;;;8.23;3.55;;;;;;;;;;6236470;28;20725;-70
2023/10/31 12:08:32;;;;;;;5.70;3.08;;;;;;;;;;6236157;28;20042;-69
2023/10/31 12:11:44;;;;;;;8.13;2.83;;;;;;;;;;6240650;28;20045;-69
2023/10/31 12:14:46;;;;;;;8.77;4.25;;;;;;;;;;6239081;28;20068;-69
2023/10/31 12:17:49;;;;;;;5.28;3.38;;;;;;;;;;6230411;28;20045;-69
2023/10/31 12:22:14;;;;;;;6.32;3.80;;;;;;;;;;6161586;28;20070;-68
2023/10/31 12:25:16;;;;;;;11.15;4.47;;;;;;;;;;6162109;28;20275;-68
2023/10/31 12:28:23;;;;;;;10.40;3.30;;;;;;;;;;6162672;28;20101;-67
2023/10/31 12:31:25;;;;;;;6.85;4.70;;;;;;;;;;6162102;28;20051;-68
2023/10/31 12:34:27;;;;;;;9.60;4.85;;;;;;;;;;6161191;28;20049;-68
2023/10/31 12:37:29;;;;;;;9.15;3.13;;;;;;;;;;6160662;28;20069;-68
2023/10/31 12:40:31;;;;;;;9.05;2.65;;;;;;;;;;6162610;28;20070;-68
2023/10/31 12:43:33;;;;;;;9.35;2.72;;;;;;;;;;6161282;28;20133;-67
2023/10/31 12:46:38;;;;;;;8.77;3.25;;;;;;;;;;6144830;28;20531;-68
2023/10/31 12:49:40;;;;;;;8.13;4.43;;;;;;;;;;6170993;28;20046;-68
2023/10/31 12:52:52;;;;;;;7.93;3.30;;;;;;;;;;6208242;28;20837;-68
2023/10/31 12:55:54;;;;;;;7.82;4.03;;;;;;;;;;6235569;28;20184;-67
2023/10/31 12:58:59;;;;;;;7.90;4.07;;;;;;;;;;6236426;28;20143;-68
2023/10/31 13:02:03;;;;;;;7.75;3.88;;;;;;;;;;6237706;28;20188;-68
2023/10/31 13:05:12;;;;;;;14.32;6.07;;;;;;;;;;6216873;28;20049;-68
2023/10/31 13:08:15;;;;;;;18.13;8.45;;;;;;;;;;6236170;28;20574;-67
2023/10/31 13:11:22;;;;;;;8.93;4.13;;;;;;;;;;6201766;28;20534;-67
2023/10/31 13:14:25;;;;;;;14.57;6.63;;;;;;;;;;6236791;28;20050;-67
2023/10/31 13:17:28;;;;;;;13.48;7.30;;;;;;;;;;6233365;28;20057;-68
2023/10/31 13:20:31;;;;;;;10.75;6.68;;;;;;;;;;6219078;28;20049;-68
2023/10/31 13:23:33;;;;;;;9.15;4.60;;;;;;;;;;6237007;28;20518;-67
2023/10/31 13:26:36;;;;;;;10.90;3.22;;;;;;;;;;6236610;28;20056;-68
2023/10/31 13:29:38;;;;;;;8.77;4.60;;;;;;;;;;6213379;28;20766;-67
2023/10/31 13:32:40;;;;;;;8.02;3.13;;;;;;;;;;6237140;28;20049;-67
2023/10/31 13:35:43;;;;;;;6.00;2.22;;;;;;;;;;6237579;28;20041;-68
2023/10/31 13:38:45;;;;;;;9.88;4.50;;;;;;;;;;6221464;28;20053;-67
2023/10/31 13:41:48;;;;;;;12.85;4.75;;;;;;;;;;6234533;28;20892;-66
2023/10/31 13:44:50;;;;;;;11.68;4.82;;;;;;;;;;6233881;28;20544;-67
2023/10/31 13:47:52;;;;;;;9.68;5.03;;;;;;;;;;6233291;28;20047;-67
2023/10/31 13:50:55;;;;;;;9.45;4.70;;;;;;;;;;6236626;28;20061;-67
2023/10/31 13:53:57;;;;;;;7.90;3.38;;;;;;;;;;6234612;28;20038;-68
2023/10/31 13:56:59;;;;;;;9.27;2.67;;;;;;;;;;6237237;28;20056;-67
2023/10/31 14:00:01;;;;;;;6.20;2.30;;;;;;;;;;6235711;28;20853;-69
2023/10/31 14:03:13;;;;;;;10.75;5.40;;;;;;;;;;6236140;28;20045;-68
2023/10/31 14:06:15;;;;;;;11.80;7.88;;;;;;;;;;6234362;28;20049;-68
2023/10/31 14:09:19;;;;;;;8.95;5.85;;;;;;;;;;6236770;28;20049;-75
2023/10/31 14:12:21;;;;;;;11.20;6.93;;;;;;;;;;6211499;28;20080;-76
2023/10/31 14:15:23;;;;;;;15.05;8.85;;;;;;;;;;6205293;28;20334;-76
2023/10/31 14:18:25;;;;;;;12.52;7.93;;;;;;;;;;6220795;28;20045;-75
2023/10/31 14:21:27;;;;;;;16.98;6.97;;;;;;;;;;6217926;28;20458;-72
2023/10/31 14:24:29;;;;;;;12.45;7.30;;;;;;;;;;6210401;28;20038;-67
2023/10/31 14:27:31;;;;;;;8.57;5.10;;;;;;;;;;6235109;28;20770;-67
2023/10/31 14:30:33;;;;;;;11.85;6.35;;;;;;;;;;6233866;28;20423;-67
2023/10/31 14:33:35;;;;;;;6.80;3.45;;;;;;;;;;6234896;28;20044;-67
2023/10/31 14:36:38;;;;;;;7.65;4.18;;;;;;;;;;6233935;28;20626;-67
2023/10/31 14:39:39;;;;;;;4.82;2.58;;;;;;;;;;6233160;28;20107;-67
2023/10/31 14:42:42;;;;;;;8.80;2.97;;;;;;;;;;6232986;28;20152;-67
2023/10/31 14:45:44;;;;;;;8.25;2.45;;;;;;;;;;6233976;28;20041;-68
2023/10/31 14:48:46;;;;;;;9.80;2.75;;;;;;;;;;6230670;28;20696;-67
2023/10/31 14:51:48;;;;;;;6.93;4.32;;;;;;;;;;6228487;28;20053;-68
2023/10/31 14:54:50;;;;;;;6.82;3.45;;;;;;;;;;6234333;28;20049;-67
2023/10/31 14:57:52;;;;;;;8.75;6.22;;;;;;;;;;6235235;28;20108;-68
2023/10/31 15:00:55;;;;;;;6.78;3.72;;;;;;;;;;6235970;28;20037;-72
2023/10/31 15:03:57;;;;;;;8.25;4.88;;;;;;;;;;6235858;28;20080;-68
2023/10/31 15:06:59;;;;;;;6.95;2.65;;;;;;;;;;6236198;28;20439;-67
2023/10/31 15:10:02;;;;;;;7.78;2.58;;;;;;;;;;6235991;28;20697;-69
2023/10/31 15:13:05;;;;;;;8.07;2.38;;;;;;;;;;6235483;28;20057;-68
2023/10/31 15:16:09;;;;;;;7.82;2.92;;;;;;;;;;6236090;28;20057;-67
2023/10/31 15:19:11;;;;;;;5.72;2.97;;;;;;;;;;6236692;28;20057;-68
2023/10/31 15:22:13;;;;;;;7.78;2.15;;;;;;;;;;6233978;28;20127;-68
2023/10/31 15:25:15;;;;;;;12.27;4.60;;;;;;;;;;6235840;28;20723;-68
2023/10/31 15:28:17;;;;;;;5.88;4.68;;;;;;;;;;6236788;28;20195;-68
2023/10/31 15:31:19;;;;;;;6.03;3.72;;;;;;;;;;6243266;28;20061;-67
2023/10/31 15:34:22;;;;;;;7.03;4.40;;;;;;;;;;6245017;28;20556;-67
2023/10/31 15:37:24;;;;;;;7.07;2.42;;;;;;;;;;6244088;28;20110;-68
2023/10/31 15:40:26;;;;;;;11.15;3.58;;;;;;;;;;6242848;28;20048;-67
2023/10/31 15:43:28;;;;;;;7.13;2.70;;;;;;;;;;6242625;28;20038;-67
2023/10/31 15:46:30;;;;;;;8.45;5.43;;;;;;;;;;6236832;28;20522;-68
2023/10/31 15:49:33;;;;;;;8.20;2.92;;;;;;;;;;6243033;28;20049;-68
2023/10/31 15:52:36;;;;;;;6.95;5.18;;;;;;;;;;6242586;28;20182;-64
2023/10/31 15:55:38;;;;;;;7.60;3.88;;;;;;;;;;6235604;28;20138;-63
2023/10/31 15:58:40;;;;;;;10.30;5.68;;;;;;;;;;6232700;28;20555;-66
2023/10/31 16:01:45;;;;;;;11.15;3.25;;;;;;;;;;6236584;28;20048;-67
2023/10/31 16:04:47;;;;;;;12.35;4.93;;;;;;;;;;6239782;28;20042;-67
2023/10/31 16:07:49;;;;;;;7.47;2.85;;;;;;;;;;6238069;28;20527;-67
2023/10/31 16:10:51;;;;;;;7.57;3.05;;;;;;;;;;6233284;28;20078;-67
2023/10/31 16:13:53;;;;;;;5.57;2.15;;;;;;;;;;6203863;28;20062;-66
2023/10/31 16:16:56;;;;;;;7.78;3.30;;;;;;;;;;6220049;28;20037;-67
2023/10/31 16:19:58;;;;;;;10.63;4.18;;;;;;;;;;6240008;28;20053;-66
2023/10/31 16:23:02;;;;;;;11.43;6.20;;;;;;;;;;6240402;28;20049;-66
2023/10/31 16:26:07;;;;;;;7.95;3.90;;;;;;;;;;6213496;28;20052;-67
2023/10/31 16:29:14;;;;;;;10.60;2.90;;;;;;;;;;6240314;28;20474;-66
2023/10/31 16:32:16;;;;;;;11.82;2.88;;;;;;;;;;6239363;28;20046;-66
2023/10/31 16:35:19;;;;;;;5.68;4.35;;;;;;;;;;6239030;28;20053;-66
2023/10/31 16:38:21;;;;;;;8.10;5.47;;;;;;;;;;6238276;28;20493;-67
2023/10/31 16:41:23;;;;;;;5.93;3.72;;;;;;;;;;6234960;28;20116;-66
2023/10/31 16:44:25;;;;;;;8.15;4.93;;;;;;;;;;6232789;28;20053;-68
2023/10/31 16:47:28;;;;;;;11.52;4.70;;;;;;;;;;6233642;28;20040;-67
2023/10/31 16:50:32;;;;;;;9.27;3.30;;;;;;;;;;6236595;28;20061;-67
2023/10/31 16:53:34;;;;;;;11.77;4.82;;;;;;;;;;6237826;28;20052;-67
2023/10/31 16:56:36;;;;;;;9.90;5.07;;;;;;;;;;6228314;28;20065;-67
2023/10/31 16:59:38;;;;;;;6.57;4.53;;;;;;;;;;6237357;28;20076;-67
2023/10/31 17:02:41;;;;;;;7.60;3.75;;;;;;;;;;6228789;28;20184;-67
2023/10/31 17:05:43;;;;;;;8.35;6.60;;;;;;;;;;6219065;28;20041;-68
2023/10/31 17:08:45;;;;;;;5.95;4.53;;;;;;;;;;6230106;28;20411;-68
2023/10/31 17:11:47;;;;;;;8.77;4.85;;;;;;;;;;6219573;28;20049;-69
2023/10/31 17:14:50;;;;;;;15.90;6.03;;;;;;;;;;6231607;28;20057;-69
2023/10/31 17:17:52;;;;;;;8.68;5.28;;;;;;;;;;6235011;28;20109;-69
2023/10/31 17:20:55;;;;;;;5.72;2.60;;;;;;;;;;6235193;28;20049;-72
2023/10/31 17:23:58;;;;;;;7.78;5.15;;;;;;;;;;6234442;28;20138;-71
2023/10/31 17:27:00;;;;;;;5.57;4.88;;;;;;;;;;6232531;28;20081;-72
2023/10/31 17:30:04;;;;;;;6.72;4.72;;;;;;;;;;6234818;28;20045;-72
2023/10/31 17:33:07;;;;;;;11.93;6.18;;;;;;;;;;6233730;28;20064;-72
2023/10/31 17:36:10;;;;;;;7.25;6.35;;;;;;;;;;6232376;28;20057;-71
2023/10/31 17:39:14;;;;;;;8.95;4.57;;;;;;;;;;6228699;28;20053;-72
2023/10/31 17:42:16;;;;;;;8.18;5.20;;;;;;;;;;6225975;28;20065;-71
2023/10/31 17:45:22;;;;;;;7.10;4.88;;;;;;;;;;6225031;28;20046;-71
2023/10/31 17:48:24;;;;;;;9.70;6.68;;;;;;;;;;6233432;28;20053;-71
2023/10/31 17:51:28;;;;;;;7.43;2.70;;;;;;;;;;6230525;28;20060;-72
2023/10/31 17:54:31;;;;;;;8.02;2.45;;;;;;;;;;6228993;28;20057;-71
2023/10/31 17:57:35;;;;;;;7.63;3.58;;;;;;;;;;6228266;28;20045;-71
2023/10/31 18:00:37;;;;;;;10.82;5.13;;;;;;;;;;6222186;28;20875;-71
2023/10/31 18:03:39;;;;;;;8.85;4.20;;;;;;;;;;6225327;28;20123;-72